<?xml version="1.0" encoding="utf-8"?>
<gpx xmlns:xsi="http://www.w3.org/2001/XMLSchema-instance" xmlns:xsd="http://www.w3.org/2001/XMLSchema" version="1.1" creator="Shapelink.com" xmlns="http://www.topografix.com/GPX/1/1" xmlns:gpxtpx="http://www.garmin.com/xmlschemas/TrackPointExtension/v1">
  <metadata>
    <name>Övrigt 1.73 km, 2020-07-10</name>
    <desc></desc>
    <author><name>Marian Moron</name></author> 
    <time>2020-07-10T20:41:43Z</time>
  </metadata>
  <trk>
    <name>Övrigt 1.73 km, 2020-07-10</name>
    <trkseg>
      <trkpt lat="51.229570811942" lon="4.457922818909">
        <ele>5.8</ele>
        <time>2020-07-10T20:41:43Z</time>
      </trkpt>
      <trkpt lat="51.229251377733" lon="4.458054498558">
        <ele>7</ele>
        <time>2020-07-10T20:42:13Z</time>
      </trkpt>
      <trkpt lat="51.228793390717" lon="4.458165139638">
        <ele>2.2</ele>
        <time>2020-07-10T20:42:43Z</time>
      </trkpt>
      <trkpt lat="51.22860370832" lon="4.458297238382">
        <ele>1.6</ele>
        <time>2020-07-10T20:42:55Z</time>
      </trkpt>
      <trkpt lat="51.228602953949" lon="4.458659671738">
        <ele>0</ele>
        <time>2020-07-10T20:43:12Z</time>
      </trkpt>
      <trkpt lat="51.228596583705" lon="4.459228299834">
        <ele>0</ele>
        <time>2020-07-10T20:43:42Z</time>
      </trkpt>
      <trkpt lat="51.228426179678" lon="4.459484031603">
        <ele>0</ele>
        <time>2020-07-10T20:43:58Z</time>
      </trkpt>
      <trkpt lat="51.228356777546" lon="4.459757449181">
        <ele>0</ele>
        <time>2020-07-10T20:44:13Z</time>
      </trkpt>
      <trkpt lat="51.228347808913" lon="4.459871862116">
        <ele>0</ele>
        <time>2020-07-10T20:44:24Z</time>
      </trkpt>
      <trkpt lat="51.228196934713" lon="4.460499666426">
        <ele>0.6</ele>
        <time>2020-07-10T20:45:15Z</time>
      </trkpt>
      <trkpt lat="51.228314281313" lon="4.460602512339">
        <ele>0</ele>
        <time>2020-07-10T20:45:51Z</time>
      </trkpt>
      <trkpt lat="51.228644360535" lon="4.461059912622">
        <ele>0.6</ele>
        <time>2020-07-10T20:46:43Z</time>
      </trkpt>
      <trkpt lat="51.228916437009" lon="4.461234172323">
        <ele>5</ele>
        <time>2020-07-10T20:47:06Z</time>
      </trkpt>
      <trkpt lat="51.229351709076" lon="4.461487976255">
        <ele>42</ele>
        <time>2020-07-10T20:47:53Z</time>
      </trkpt>
      <trkpt lat="51.229377692966" lon="4.461481270735">
        <ele>42.2</ele>
        <time>2020-07-10T20:47:55Z</time>
      </trkpt>
      <trkpt lat="51.2296363584" lon="4.460930747543">
        <ele>4.8</ele>
        <time>2020-07-10T20:48:45Z</time>
      </trkpt>
      <trkpt lat="51.229701569582" lon="4.461204919492">
        <ele>9</ele>
        <time>2020-07-10T20:49:17Z</time>
      </trkpt>
      <trkpt lat="51.22985344961" lon="4.461781678031">
        <ele>1.8</ele>
        <time>2020-07-10T20:49:58Z</time>
      </trkpt>
      <trkpt lat="51.229868201754" lon="4.461904808142">
        <ele>4.8</ele>
        <time>2020-07-10T20:50:09Z</time>
      </trkpt>
      <trkpt lat="51.229967694907" lon="4.46232323259">
        <ele>2.6</ele>
        <time>2020-07-10T20:50:32Z</time>
      </trkpt>
      <trkpt lat="51.230082359299" lon="4.462609390656">
        <ele>0</ele>
        <time>2020-07-10T20:50:59Z</time>
      </trkpt>
      <trkpt lat="51.230140864961" lon="4.462806113849">
        <ele>0.8</ele>
        <time>2020-07-10T20:51:17Z</time>
      </trkpt>
      <trkpt lat="51.230312358635" lon="4.463312129152">
        <ele>0</ele>
        <time>2020-07-10T20:52:08Z</time>
      </trkpt>
      <trkpt lat="51.230369942288" lon="4.463452861253">
        <ele>1</ele>
        <time>2020-07-10T20:52:41Z</time>
      </trkpt>
      <trkpt lat="51.23018369647" lon="4.464063817944">
        <ele>1.4</ele>
        <time>2020-07-10T20:53:36Z</time>
      </trkpt>
      <trkpt lat="51.229939280266" lon="4.464310832537">
        <ele>4.4</ele>
        <time>2020-07-10T20:54:22Z</time>
      </trkpt>
      <trkpt lat="51.229816988345" lon="4.464136153741">
        <ele>15.6</ele>
        <time>2020-07-10T20:54:36Z</time>
      </trkpt>
      <trkpt lat="51.229645410852" lon="4.464191893376">
        <ele>24.2</ele>
        <time>2020-07-10T20:55:03Z</time>
      </trkpt>
      <trkpt lat="51.229205444921" lon="4.464403368713">
        <ele>4.6</ele>
        <time>2020-07-10T20:55:58Z</time>
      </trkpt>
      <trkpt lat="51.229187507655" lon="4.464396160279">
        <ele>5.6</ele>
        <time>2020-07-10T20:56:00Z</time>
      </trkpt>
      <trkpt lat="51.229166804362" lon="4.46437931266">
        <ele>6.2</ele>
        <time>2020-07-10T20:56:02Z</time>
      </trkpt>
      <trkpt lat="51.22915607553" lon="4.464351484752">
        <ele>5.6</ele>
        <time>2020-07-10T20:56:04Z</time>
      </trkpt>
      <trkpt lat="51.229117686428" lon="4.464205891149">
        <ele>4.4</ele>
        <time>2020-07-10T20:56:13Z</time>
      </trkpt>
      <trkpt lat="51.228672020805" lon="4.463845134173">
        <ele>18.4</ele>
        <time>2020-07-10T20:59:27Z</time>
      </trkpt>
      <trkpt lat="51.228681408533" lon="4.463871956253">
        <ele>19.6</ele>
        <time>2020-07-10T20:59:28Z</time>
      </trkpt>
      <trkpt lat="51.228626842364" lon="4.464202706027">
        <ele>7.4</ele>
        <time>2020-07-10T21:00:05Z</time>
      </trkpt>
      <trkpt lat="51.228518045302" lon="4.46395518852">
        <ele>5</ele>
        <time>2020-07-10T21:00:33Z</time>
      </trkpt>
      <trkpt lat="51.228478734191" lon="4.46352016791">
        <ele>15.8</ele>
        <time>2020-07-10T21:01:03Z</time>
      </trkpt>
      <trkpt lat="51.228076654448" lon="4.463192770896">
        <ele>2.4</ele>
        <time>2020-07-10T21:01:33Z</time>
      </trkpt>
      <trkpt lat="51.227884457481" lon="4.463194195819">
        <ele>1</ele>
        <time>2020-07-10T21:01:52Z</time>
      </trkpt>
      <trkpt lat="51.227647501168" lon="4.462985570328">
        <ele>5.6</ele>
        <time>2020-07-10T21:02:28Z</time>
      </trkpt>
      <trkpt lat="51.227628474255" lon="4.462908373029">
        <ele>5</ele>
        <time>2020-07-10T21:02:38Z</time>
      </trkpt>
      <trkpt lat="51.227464943386" lon="4.462243855997">
        <ele>3.2</ele>
        <time>2020-07-10T21:03:17Z</time>
      </trkpt>
      <trkpt lat="51.227384728603" lon="4.461645555975">
        <ele>0.2</ele>
        <time>2020-07-10T21:03:49Z</time>
      </trkpt>
      <trkpt lat="51.227372239572" lon="4.461622170474">
        <ele>0</ele>
        <time>2020-07-10T21:03:51Z</time>
      </trkpt>
      <trkpt lat="51.227358409437" lon="4.461353614398">
        <ele>0</ele>
        <time>2020-07-10T21:04:28Z</time>
      </trkpt>
      <trkpt lat="51.227404593706" lon="4.46129309708">
        <ele>0</ele>
        <time>2020-07-10T21:04:35Z</time>
      </trkpt>
      <trkpt lat="51.227547672739" lon="4.460962263487">
        <ele>18.2</ele>
        <time>2020-07-10T21:05:08Z</time>
      </trkpt>
      <trkpt lat="51.227549097662" lon="4.460886742568">
        <ele>19.2</ele>
        <time>2020-07-10T21:05:13Z</time>
      </trkpt>
      <trkpt lat="51.227432253976" lon="4.460678368534">
        <ele>21</ele>
        <time>2020-07-10T21:06:47Z</time>
      </trkpt>
      <trkpt lat="51.227200997355" lon="4.460039500116">
        <ele>6.4</ele>
        <time>2020-07-10T21:07:24Z</time>
      </trkpt>
      <trkpt lat="51.226992623321" lon="4.459405074105">
        <ele>0</ele>
        <time>2020-07-10T21:07:56Z</time>
      </trkpt>
      <trkpt lat="51.226996981909" lon="4.459326870978">
        <ele>0</ele>
        <time>2020-07-10T21:08:03Z</time>
      </trkpt>
      <trkpt lat="51.227025312731" lon="4.459295774129">
        <ele>0</ele>
        <time>2020-07-10T21:08:05Z</time>
      </trkpt>
      <trkpt lat="51.227084824221" lon="4.45923450244">
        <ele>0.6</ele>
        <time>2020-07-10T21:08:10Z</time>
      </trkpt>
      <trkpt lat="51.227481791005" lon="4.45887575712">
        <ele>3.2</ele>
        <time>2020-07-10T21:08:53Z</time>
      </trkpt>
      <trkpt lat="51.227821928507" lon="4.458725050558">
        <ele>17.2</ele>
        <time>2020-07-10T21:09:32Z</time>
      </trkpt>
      <trkpt lat="51.228248986312" lon="4.458481891639">
        <ele>18</ele>
        <time>2020-07-10T21:10:08Z</time>
      </trkpt>
      <trkpt lat="51.228564229571" lon="4.45826220204">
        <ele>10</ele>
        <time>2020-07-10T21:10:28Z</time>
      </trkpt>
      <trkpt lat="51.228757767642" lon="4.458268153189">
        <ele>4.8</ele>
        <time>2020-07-10T21:11:08Z</time>
      </trkpt>
      <trkpt lat="51.229188681121" lon="4.458083332294">
        <ele>15.2</ele>
        <time>2020-07-10T21:12:14Z</time>
      </trkpt>
      <trkpt lat="51.229635939305" lon="4.457938409243">
        <ele>6.8</ele>
        <time>2020-07-10T21:12:52Z</time>
      </trkpt>
      <trkpt lat="51.229708023645" lon="4.458038992043">
        <ele>0.2</ele>
        <time>2020-07-10T21:13:30Z</time>
      </trkpt>
    </trkseg>
  </trk>
</gpx>